»·PEaware :: N75232 KCMA-KSNA

N75232 :: KCMA-KSNA

FLIGHT INFORMATION

Flight Status: Arrived
Operator: Privately registered:
United States
More flights under this callsign
Pilot: Daniel B. (28719)
Aircraft: CESSNA 172 SKYHAWK
(C172)
More flights by this aircraft type
Origin: KCMA Camarillo
United States
Destination: KSNA John Wayne-Orange Co
United States
More flights between these airports :: More routes between these airports
Route: +
File this flight plan on PilotEdge
Remarks:
Altitude:
(Current/Filed)
5,500ft
Speed:
(Current/Filed)
0kts
Departed: 23-Apr-20 12:37 PM
Arrived: 23-Apr-20 01:25 PM
Distance/Time
Traveled:
69nm/0:48
Distance/Time
To Go:
Arrived

Flight Plot

Page will automatically refresh every two minutes.


Map Options




Map Legend


Flown Route
Filed Route
Departure Airport
Arrival Airport
Navaid (VOR, NDB)
Fix

Horizontal Profiles

Position Reports

Time Latitude Longitude Heading Altitude Ground
Speed
23-Apr-20 12:23 34.210350 -119.076468 90 79ft 0kts
23-Apr-20 12:24 34.210350 -119.076468 90 79ft 0kts
23-Apr-20 12:25 34.210350 -119.076468 90 79ft 0kts
23-Apr-20 12:26 34.210350 -119.076468 90 79ft 0kts
23-Apr-20 12:27 34.210350 -119.076468 90 79ft 0kts
23-Apr-20 12:28 34.210350 -119.076468 90 79ft 0kts
23-Apr-20 12:29 34.210375 -119.076456 357 79ft 1kts
23-Apr-20 12:30 34.210488 -119.076450 0 79ft 0kts
23-Apr-20 12:31 34.210900 -119.080483 271 77ft 22kts
23-Apr-20 12:32 34.212023 -119.084627 359 74ft 15kts
23-Apr-20 12:33 34.212939 -119.084623 359 76ft 0kts
23-Apr-20 12:34 34.212940 -119.084623 359 76ft 0kts
23-Apr-20 12:35 34.212940 -119.084623 359 76ft 0kts
23-Apr-20 12:36 34.213860 -119.093718 260 224ft 73kts
23-Apr-20 12:37 34.207344 -119.117784 192 1000ft 81kts
23-Apr-20 12:38 34.201783 -119.091518 82 1774ft 98kts
23-Apr-20 12:39 34.203497 -119.059033 103 2506ft 96kts
23-Apr-20 12:40 34.198642 -119.026652 91 3176ft 100kts
23-Apr-20 12:41 34.196986 -118.993015 96 3805ft 101kts
23-Apr-20 12:42 34.191964 -118.959623 104 4407ft 102kts
23-Apr-20 12:43 34.184622 -118.926313 106 4973ft 103kts
23-Apr-20 12:44 34.178200 -118.892550 100 5567ft 108kts
23-Apr-20 12:45 34.170874 -118.852253 104 5548ft 125kts
23-Apr-20 12:46 34.164004 -118.811059 105 5569ft 125kts
23-Apr-20 12:47 34.154805 -118.770094 104 5543ft 126kts
23-Apr-20 12:48 34.147040 -118.728559 102 5499ft 126kts
23-Apr-20 12:49 34.139205 -118.687409 101 5519ft 123kts
23-Apr-20 12:50 34.132649 -118.646810 100 5539ft 125kts
23-Apr-20 12:51 34.124389 -118.605896 105 5530ft 125kts
23-Apr-20 12:52 34.114087 -118.565784 104 5537ft 125kts
23-Apr-20 12:53 34.103479 -118.526579 124 5516ft 127kts
23-Apr-20 12:54 34.076042 -118.502438 149 5505ft 124kts
23-Apr-20 12:55 34.048614 -118.484772 156 5514ft 122kts
23-Apr-20 12:56 34.019200 -118.470310 158 5516ft 123kts
23-Apr-20 12:57 33.988282 -118.455165 156 5518ft 123kts
23-Apr-20 12:58 33.958896 -118.441791 158 5528ft 122kts
23-Apr-20 12:59 33.931710 -118.428965 152 5532ft 121kts
23-Apr-20 13:00 33.912071 -118.408664 136 5550ft 119kts
23-Apr-20 13:01 33.892654 -118.388657 135 5554ft 119kts
23-Apr-20 13:02 33.872637 -118.368092 137 5555ft 119kts
23-Apr-20 13:03 33.853833 -118.346788 131 5561ft 118kts
23-Apr-20 13:04 33.834662 -118.324908 134 5571ft 118kts
23-Apr-20 13:05 33.814756 -118.303427 133 5585ft 116kts
23-Apr-20 13:06 33.794160 -118.280931 132 5594ft 116kts
23-Apr-20 13:07 33.773330 -118.256530 112 5570ft 114kts
23-Apr-20 13:08 33.763980 -118.224239 103 5575ft 111kts
23-Apr-20 13:09 33.745443 -118.190875 137 5600ft 112kts
23-Apr-20 13:10 33.722588 -118.151422 112 5575ft 112kts
23-Apr-20 13:11 33.703307 -118.105064 123 5502ft 115kts
23-Apr-20 13:12 33.681366 -118.068508 139 5277ft 98kts
23-Apr-20 13:13 33.665500 -118.045937 130 4422ft 87kts
23-Apr-20 13:14 33.656744 -118.019956 115 3569ft 95kts
23-Apr-20 13:15 33.658588 -117.993747 82 2966ft 90kts
23-Apr-20 13:16 33.664454 -117.970678 80 2418ft 89kts
23-Apr-20 13:17 33.668810 -117.943530 84 2027ft 103kts
23-Apr-20 13:18 33.671616 -117.915039 89 1631ft 105kts
23-Apr-20 13:19 33.672281 -117.886672 95 1281ft 98kts
23-Apr-20 13:20 33.671116 -117.862549 92 1221ft 87kts
23-Apr-20 13:21 33.682890 -117.846880 34 922ft 79kts
23-Apr-20 13:22 33.694041 -117.853963 244 627ft 61kts
23-Apr-20 13:23 33.681925 -117.863025 203 111ft 56kts
23-Apr-20 13:24 33.677324 -117.866638 291 60ft 0kts
23-Apr-20 13:25 33.677324 -117.866638 291 60ft 0kts
23-Apr-20 13:26 33.677324 -117.866638 291 60ft 0kts
23-Apr-20 13:27 33.677324 -117.866638 291 60ft 0kts
23-Apr-20 13:29 33.677487 -117.866991 298 60ft 9kts
23-Apr-20 13:30 33.676957 -117.869519 207 60ft 16kts
23-Apr-20 13:31 33.676319 -117.870840 209 60ft 0kts
23-Apr-20 13:32 33.676318 -117.870840 212 60ft 0kts
23-Apr-20 13:33 33.676318 -117.870840 212 60ft 0kts
23-Apr-20 13:34 33.676318 -117.870840 212 60ft 0kts
23-Apr-20 13:35 33.676318 -117.870840 212 60ft 0kts
23-Apr-20 13:36 33.676318 -117.870840 212 60ft 0kts
23-Apr-20 13:37 33.676318 -117.870840 212 60ft 0kts
23-Apr-20 13:38 33.676318 -117.870840 212 60ft 0kts
23-Apr-20 13:39 33.676318 -117.870840 212 60ft 0kts
23-Apr-20 13:40 33.676318 -117.870840 212 60ft 0kts

Navigation Log

Ident Type
Flight plan parsing failed, navigation log unavailable